createdAt,value
2023-04-06T00:00:03.235Z,3.90
2023-04-06T00:02:37.776Z,3.90
2023-04-06T00:05:06.989Z,3.90
2023-04-06T00:07:36.443Z,3.90
2023-04-06T00:10:05.586Z,3.90
2023-04-06T00:12:33.784Z,3.90
2023-04-06T00:15:04.019Z,3.90
2023-04-06T00:17:32.294Z,4.00
2023-04-06T00:20:00.504Z,4.00
2023-04-06T00:22:28.720Z,4.00
2023-04-06T00:24:56.907Z,3.80
2023-04-06T00:27:25.569Z,3.80
2023-04-06T00:29:53.841Z,3.90
2023-04-06T00:32:23.760Z,3.90
2023-04-06T00:34:52.002Z,3.90
2023-04-06T00:37:20.670Z,3.80
2023-04-06T00:39:48.965Z,3.80
2023-04-06T00:42:17.420Z,3.80
2023-04-06T00:44:45.759Z,3.70
2023-04-06T00:47:14.460Z,3.60
2023-04-06T00:49:44.077Z,3.50
2023-04-06T00:52:12.281Z,3.30
2023-04-06T00:54:40.745Z,3.20
2023-04-06T00:57:10.172Z,3.20
2023-04-06T00:59:38.515Z,3.10
2023-04-06T01:02:10.148Z,3.10
2023-04-06T01:04:46.660Z,3.00
2023-04-06T01:07:25.649Z,3.00
2023-04-06T01:10:07.795Z,3.00
2023-04-06T01:12:39.732Z,2.90
2023-04-06T01:15:14.721Z,2.90
2023-04-06T01:17:46.416Z,2.80
2023-04-06T01:20:20.240Z,2.80
2023-04-06T01:22:50.697Z,2.80
2023-04-06T01:25:21.316Z,2.70
2023-04-06T01:28:07.722Z,2.70
2023-04-06T01:30:55.309Z,2.70
2023-04-06T01:33:43.523Z,2.80
2023-04-06T01:36:16.204Z,2.80
2023-04-06T01:38:47.205Z,2.80
2023-04-06T01:41:18.104Z,2.70
2023-04-06T01:43:55.488Z,2.60
2023-04-06T01:46:27.805Z,2.60
2023-04-06T01:48:56.208Z,2.50
2023-04-06T01:51:44.956Z,2.40
2023-04-06T01:54:16.525Z,2.40
2023-04-06T01:57:07.605Z,2.30
2023-04-06T01:59:43.047Z,2.30
2023-04-06T02:02:19.775Z,2.30
2023-04-06T02:04:57.574Z,2.30
2023-04-06T02:07:25.956Z,2.30
2023-04-06T02:09:57.772Z,2.30
2023-04-06T02:12:34.586Z,2.40
2023-04-06T02:15:03.323Z,2.40
2023-04-06T02:17:31.718Z,2.50
2023-04-06T02:20:00.053Z,2.50
2023-04-06T02:22:28.280Z,2.40
2023-04-06T02:24:57.873Z,2.50
2023-04-06T02:27:28.296Z,2.60
2023-04-06T02:29:56.576Z,2.70
2023-04-06T02:32:25.407Z,2.40
2023-04-06T02:34:54.606Z,2.50
2023-04-06T02:37:24.957Z,2.50
2023-04-06T02:39:53.951Z,2.30
2023-04-06T02:42:23.870Z,2.30
2023-04-06T02:44:53.977Z,2.50
2023-04-06T02:47:25.412Z,2.50
2023-04-06T02:49:54.104Z,2.60
2023-04-06T02:52:22.421Z,2.60
2023-04-06T02:54:52.138Z,2.60
2023-04-06T02:57:28.183Z,2.50
2023-04-06T02:59:56.733Z,2.50
2023-04-06T03:02:32.200Z,2.50
2023-04-06T03:05:08.356Z,2.50
2023-04-06T03:07:40.670Z,2.50
2023-04-06T03:10:13.948Z,2.40
2023-04-06T03:12:43.712Z,2.30
2023-04-06T03:15:19.032Z,2.20
2023-04-06T03:17:54.705Z,2.10
2023-04-06T03:20:52.293Z,2.00
2023-04-06T03:23:21.840Z,1.90
2023-04-06T03:25:54.684Z,1.80
2023-04-06T03:28:25.374Z,1.80
2023-04-06T03:30:59.649Z,1.80
2023-04-06T03:33:42.624Z,1.70
2023-04-06T03:36:15.829Z,1.80
2023-04-06T03:38:45.579Z,1.80
2023-04-06T03:41:16.087Z,1.80
2023-04-06T03:43:56.880Z,1.90
2023-04-06T03:46:25.286Z,1.90
2023-04-06T03:48:55.904Z,2.00
2023-04-06T03:51:26.245Z,2.00
2023-04-06T03:53:54.410Z,2.00
2023-04-06T03:56:22.643Z,2.10
2023-04-06T03:58:51.963Z,2.10
2023-04-06T04:01:24.235Z,2.10
2023-04-06T04:03:53.280Z,2.10
2023-04-06T04:06:21.612Z,2.10
2023-04-06T04:08:49.849Z,2.10
2023-04-06T04:11:18.116Z,2.20
2023-04-06T04:13:50.590Z,2.20
2023-04-06T04:16:18.807Z,2.20
2023-04-06T04:18:49.677Z,2.10
2023-04-06T04:21:17.888Z,2.00
2023-04-06T04:23:46.259Z,2.00
2023-04-06T04:26:14.714Z,2.00
2023-04-06T04:28:46.431Z,2.00
2023-04-06T04:31:18.716Z,2.00
2023-04-06T04:33:51.365Z,2.00
2023-04-06T04:36:27.433Z,2.00
2023-04-06T04:38:58.392Z,1.90
2023-04-06T04:41:27.343Z,2.00
2023-04-06T04:43:56.084Z,1.90
2023-04-06T04:46:26.825Z,1.90
2023-04-06T04:48:57.675Z,1.80
2023-04-06T04:51:26.796Z,1.80
2023-04-06T04:54:24.459Z,1.80
2023-04-06T04:56:53.580Z,1.80
2023-04-06T04:59:30.836Z,1.80
2023-04-06T05:02:05.720Z,1.80
2023-04-06T05:04:46.638Z,1.80
2023-04-06T05:07:21.898Z,1.70
2023-04-06T05:09:51.936Z,1.70
2023-04-06T05:12:22.022Z,1.60
2023-04-06T05:15:11.925Z,1.60
2023-04-06T05:17:40.398Z,1.70
2023-04-06T05:20:13.554Z,1.60
2023-04-06T05:22:48.224Z,1.60
2023-04-06T05:25:17.578Z,1.60
2023-04-06T05:27:47.670Z,1.60
2023-04-06T05:30:29.042Z,1.60
2023-04-06T05:32:57.823Z,1.60
2023-04-06T05:35:31.104Z,1.60
2023-04-06T05:38:04.452Z,1.60
2023-04-06T05:40:32.699Z,1.70
2023-04-06T05:43:01.648Z,1.80
2023-04-06T05:45:30.345Z,1.70
2023-04-06T05:47:59.858Z,1.70
2023-04-06T05:50:32.635Z,1.70
2023-04-06T05:53:01.291Z,1.70
2023-04-06T05:55:35.515Z,1.70
2023-04-06T05:58:29.692Z,1.70
2023-04-06T06:00:59.706Z,1.70
2023-04-06T06:03:31.575Z,1.70
2023-04-06T06:06:05.604Z,1.70
2023-04-06T06:08:47.322Z,1.70
2023-04-06T06:11:18.390Z,1.80
2023-04-06T06:13:46.588Z,1.90
2023-04-06T06:16:16.264Z,1.90
2023-04-06T06:18:48.394Z,1.90
2023-04-06T06:21:18.499Z,2.00
2023-04-06T06:23:49.138Z,2.10
2023-04-06T06:26:20.643Z,2.10
2023-04-06T06:28:48.921Z,2.20
2023-04-06T06:31:17.872Z,2.20
2023-04-06T06:33:46.345Z,2.20
2023-04-06T06:36:15.273Z,2.20
2023-04-06T06:38:45.677Z,2.20
2023-04-06T06:41:14.515Z,2.20
2023-04-06T06:43:42.911Z,2.30
2023-04-06T06:46:13.687Z,2.40
2023-04-06T06:48:42.982Z,2.60
2023-04-06T06:51:12.813Z,2.70
2023-04-06T06:53:42.565Z,2.90
2023-04-06T06:56:12.351Z,3.10
2023-04-06T06:58:40.699Z,3.10
2023-04-06T07:01:08.999Z,3.30
2023-04-06T07:03:37.465Z,3.40
2023-04-06T07:06:05.886Z,3.50
2023-04-06T07:08:34.206Z,3.50
2023-04-06T07:11:02.429Z,3.70
2023-04-06T07:13:32.491Z,3.80
2023-04-06T07:16:02.691Z,3.90
2023-04-06T07:18:32.842Z,4.00
2023-04-06T07:21:02.495Z,4.20
2023-04-06T07:23:30.902Z,4.10
2023-04-06T07:25:59.357Z,4.20
2023-04-06T07:28:27.573Z,4.30
2023-04-06T07:30:58.138Z,4.40
2023-04-06T07:33:30.856Z,4.50
2023-04-06T07:36:00.134Z,4.70
2023-04-06T07:38:28.532Z,4.90
2023-04-06T07:40:58.446Z,4.90
2023-04-06T07:43:26.866Z,5.10
2023-04-06T07:45:55.763Z,5.10
2023-04-06T07:48:25.568Z,5.20
2023-04-06T07:50:54.120Z,5.30
2023-04-06T07:53:22.644Z,5.30
2023-04-06T07:55:51.024Z,5.40
2023-04-06T07:58:19.472Z,5.40
2023-04-06T08:00:47.690Z,5.50
2023-04-06T08:03:16.089Z,5.60
2023-04-06T08:05:46.221Z,5.70
2023-04-06T08:08:14.538Z,5.80
2023-04-06T08:10:42.767Z,5.90
2023-04-06T08:13:11.104Z,6.00
2023-04-06T08:15:39.722Z,6.10
2023-04-06T08:18:07.974Z,6.20
2023-04-06T08:20:36.738Z,6.30
2023-04-06T08:23:07.674Z,6.40
2023-04-06T08:25:37.413Z,6.50
2023-04-06T08:28:05.925Z,6.70
2023-04-06T08:30:34.276Z,6.70
2023-04-06T08:33:02.530Z,6.80
2023-04-06T08:35:30.915Z,7.00
2023-04-06T08:37:59.717Z,7.10
2023-04-06T08:40:29.715Z,7.20
2023-04-06T08:42:59.113Z,7.30
2023-04-06T08:45:27.393Z,7.40
2023-04-06T08:48:00.104Z,7.50
2023-04-06T08:50:28.885Z,7.60
2023-04-06T08:52:57.589Z,7.50
2023-04-06T08:55:26.650Z,7.50
2023-04-06T08:57:57.591Z,7.50
2023-04-06T09:00:27.803Z,7.40
2023-04-06T09:02:57.970Z,7.50
2023-04-06T09:05:27.345Z,7.60
2023-04-06T09:07:56.326Z,7.70
2023-04-06T09:10:26.809Z,7.70
2023-04-06T09:13:08.544Z,7.80
2023-04-06T09:15:37.299Z,7.80
2023-04-06T09:18:05.684Z,8.00
2023-04-06T09:20:34.133Z,8.20
2023-04-06T09:23:02.381Z,8.20
2023-04-06T09:25:32.335Z,8.20
2023-04-06T09:28:01.974Z,8.40
2023-04-06T09:30:32.131Z,8.60
2023-04-06T09:33:00.966Z,8.70
2023-04-06T09:35:31.403Z,9.00
2023-04-06T09:38:00.134Z,9.10
2023-04-06T09:40:30.119Z,9.20
2023-04-06T09:42:58.796Z,9.10
2023-04-06T09:45:28.024Z,9.20
2023-04-06T09:47:58.224Z,9.30
2023-04-06T09:50:28.692Z,9.40
2023-04-06T09:52:59.702Z,9.40
2023-04-06T09:55:32.908Z,9.50
2023-04-06T09:58:07.401Z,9.60
2023-04-06T10:00:45.174Z,9.60
2023-04-06T10:03:25.919Z,9.80
2023-04-06T10:05:59.340Z,9.80
2023-04-06T10:08:32.490Z,9.80
2023-04-06T10:11:02.608Z,9.80
2023-04-06T10:13:31.291Z,10.10
2023-04-06T10:16:01.717Z,10.30
2023-04-06T10:18:31.629Z,10.50
2023-04-06T10:21:06.234Z,10.70
2023-04-06T10:23:37.967Z,10.90
2023-04-06T10:26:08.273Z,11.00
2023-04-06T10:28:37.716Z,10.70
2023-04-06T10:31:08.549Z,10.70
2023-04-06T10:33:38.416Z,10.80
2023-04-06T10:36:13.914Z,10.90
2023-04-06T10:38:43.314Z,11.00
2023-04-06T10:41:13.035Z,11.10
2023-04-06T10:43:42.963Z,11.20
2023-04-06T10:46:12.695Z,11.30
2023-04-06T10:48:43.902Z,11.40
2023-04-06T10:51:13.591Z,11.50
2023-04-06T10:53:44.491Z,11.60
2023-04-06T10:56:15.051Z,11.80
2023-04-06T10:58:48.264Z,11.90
2023-04-06T11:01:17.652Z,11.70
2023-04-06T11:03:48.070Z,11.80
2023-04-06T11:06:23.848Z,11.90
2023-04-06T11:08:53.072Z,12.00
2023-04-06T11:11:23.348Z,11.80
2023-04-06T11:13:52.735Z,12.10
2023-04-06T11:16:22.315Z,12.30
2023-04-06T11:18:54.859Z,12.50
2023-04-06T11:21:34.309Z,12.10
2023-04-06T11:24:13.475Z,12.00
2023-04-06T11:26:42.981Z,12.30
2023-04-06T11:29:11.408Z,12.50
2023-04-06T11:31:43.901Z,12.70
2023-04-06T11:34:14.856Z,12.90
2023-04-06T11:36:44.372Z,13.00
2023-04-06T11:39:13.472Z,13.00
2023-04-06T11:41:41.844Z,12.80
2023-04-06T11:44:10.019Z,12.70
2023-04-06T11:46:38.354Z,12.90
2023-04-06T11:49:06.689Z,12.70
2023-04-06T11:51:39.439Z,12.40
2023-04-06T11:54:07.711Z,12.40
2023-04-06T11:56:35.957Z,12.50
2023-04-06T11:59:04.328Z,12.60
2023-04-06T12:01:36.994Z,12.70
2023-04-06T12:04:07.550Z,12.50
2023-04-06T12:06:36.219Z,12.40
2023-04-06T12:09:05.851Z,12.30
2023-04-06T12:11:34.148Z,12.60
2023-04-06T12:14:05.673Z,13.00
2023-04-06T12:16:34.041Z,13.30
2023-04-06T12:19:02.772Z,13.50
2023-04-06T12:21:32.185Z,13.00
2023-04-06T12:24:00.708Z,12.70
2023-04-06T12:26:30.376Z,12.70
2023-04-06T12:29:00.291Z,13.00
2023-04-06T12:31:28.554Z,13.40
2023-04-06T12:33:56.723Z,13.70
2023-04-06T12:36:25.328Z,13.80
2023-04-06T12:38:53.973Z,13.70
2023-04-06T12:41:22.171Z,13.70
2023-04-06T12:43:51.922Z,13.70
2023-04-06T12:46:20.213Z,13.70
2023-04-06T12:48:48.885Z,13.80
2023-04-06T12:51:18.276Z,13.30
2023-04-06T12:53:46.521Z,13.10
2023-04-06T12:56:15.858Z,13.10
2023-04-06T12:58:44.151Z,13.00
2023-04-06T13:01:14.019Z,12.90
2023-04-06T13:03:42.757Z,13.00
2023-04-06T13:06:11.916Z,12.80
2023-04-06T13:08:41.075Z,13.00
2023-04-06T13:11:10.220Z,12.90
2023-04-06T13:13:39.376Z,12.80
2023-04-06T13:16:10.010Z,13.00
2023-04-06T13:18:40.424Z,13.10
2023-04-06T13:21:09.155Z,13.20
2023-04-06T13:23:37.520Z,13.30
2023-04-06T13:26:07.206Z,13.50
2023-04-06T13:28:38.269Z,13.70
2023-04-06T13:31:07.082Z,13.50
2023-04-06T13:33:35.480Z,13.30
2023-04-06T13:36:06.026Z,13.40
2023-04-06T13:38:34.684Z,13.50
2023-04-06T13:41:03.026Z,13.60
2023-04-06T13:43:31.323Z,13.70
2023-04-06T13:46:01.827Z,13.50
2023-04-06T13:48:30.134Z,13.50
2023-04-06T13:50:58.329Z,13.60
2023-04-06T13:53:27.875Z,13.70
2023-04-06T13:55:56.836Z,13.80
2023-04-06T13:58:25.125Z,13.80
2023-04-06T14:00:53.799Z,13.70
2023-04-06T14:03:23.936Z,13.30
2023-04-06T14:05:52.444Z,13.10
2023-04-06T14:08:20.684Z,13.20
2023-04-06T14:10:50.197Z,13.40
2023-04-06T14:13:18.369Z,13.50
2023-04-06T14:15:46.473Z,13.80
2023-04-06T14:18:14.649Z,13.70
2023-04-06T14:20:42.688Z,13.60
2023-04-06T14:23:10.794Z,13.60
2023-04-06T14:25:38.884Z,13.70
2023-04-06T14:28:08.375Z,13.80
2023-04-06T14:30:36.475Z,13.80
2023-04-06T14:33:04.639Z,13.80
2023-04-06T14:35:33.616Z,13.80
2023-04-06T14:38:02.556Z,13.80
2023-04-06T14:40:31.091Z,13.50
2023-04-06T14:42:59.199Z,13.40
2023-04-06T14:45:28.749Z,13.40
2023-04-06T14:47:56.932Z,13.40
2023-04-06T14:50:25.033Z,13.50
2023-04-06T14:52:53.164Z,13.60
2023-04-06T14:55:21.340Z,13.70
2023-04-06T14:57:49.478Z,13.70
2023-04-06T15:00:18.479Z,13.60
2023-04-06T15:02:48.028Z,13.60
2023-04-06T15:05:16.216Z,13.70
2023-04-06T15:07:44.293Z,13.70
2023-04-06T15:10:12.698Z,13.70
2023-04-06T15:12:40.865Z,13.60
2023-04-06T15:15:09.849Z,13.40
2023-04-06T15:17:37.951Z,13.40
2023-04-06T15:20:08.683Z,13.50
2023-04-06T15:22:37.340Z,13.60
2023-04-06T15:25:06.482Z,13.70
2023-04-06T15:27:34.602Z,13.60
2023-04-06T15:30:02.895Z,13.70
2023-04-06T15:32:31.096Z,13.40
2023-04-06T15:35:00.191Z,13.10
2023-04-06T15:37:29.657Z,13.00
2023-04-06T15:39:59.507Z,12.80
2023-04-06T15:42:28.321Z,12.80
2023-04-06T15:44:56.489Z,12.80
2023-04-06T15:47:24.730Z,12.80
2023-04-06T15:49:52.967Z,13.00
2023-04-06T15:52:22.764Z,13.00
2023-04-06T15:54:52.305Z,12.90
2023-04-06T15:57:20.372Z,12.80
2023-04-06T15:59:48.449Z,12.60
2023-04-06T16:02:16.877Z,12.50
2023-04-06T16:04:45.109Z,12.70
2023-04-06T16:07:13.338Z,12.60
2023-04-06T16:09:41.497Z,12.50
2023-04-06T16:12:11.067Z,12.50
2023-04-06T16:14:39.163Z,12.40
2023-04-06T16:17:07.351Z,12.40
2023-04-06T16:19:35.594Z,12.20
2023-04-06T16:22:03.922Z,12.10
2023-04-06T16:24:32.134Z,12.10
2023-04-06T16:27:00.605Z,12.00
2023-04-06T16:29:31.831Z,12.10
2023-04-06T16:32:00.031Z,12.10
2023-04-06T16:34:32.803Z,12.00
2023-04-06T16:37:01.700Z,12.00
2023-04-06T16:39:29.976Z,12.00
2023-04-06T16:41:58.383Z,11.90
2023-04-06T16:44:27.223Z,11.90
2023-04-06T16:46:56.770Z,11.90
2023-04-06T16:49:24.904Z,12.00
2023-04-06T16:51:53.145Z,11.90
2023-04-06T16:54:21.247Z,11.80
2023-04-06T16:56:49.379Z,11.60
2023-04-06T16:59:17.471Z,11.60
2023-04-06T17:01:45.755Z,11.70
2023-04-06T17:04:15.342Z,11.70
2023-04-06T17:06:43.466Z,11.70
2023-04-06T17:09:11.890Z,11.50
2023-04-06T17:11:46.456Z,11.50
2023-04-06T17:14:14.959Z,11.40
2023-04-06T17:16:43.110Z,11.40
2023-04-06T17:19:11.352Z,11.40
2023-04-06T17:21:42.716Z,11.50
2023-04-06T17:24:10.898Z,11.50
2023-04-06T17:26:40.447Z,11.40
2023-04-06T17:29:08.849Z,11.30
2023-04-06T17:31:37.214Z,11.30
2023-04-06T17:34:05.535Z,11.30
2023-04-06T17:36:33.629Z,11.20
2023-04-06T17:39:03.381Z,11.20
2023-04-06T17:41:32.805Z,11.30
2023-04-06T17:44:01.350Z,11.40
2023-04-06T17:46:29.499Z,11.40
2023-04-06T17:48:57.690Z,11.50
2023-04-06T17:51:27.179Z,11.30
2023-04-06T17:53:55.438Z,11.00
2023-04-06T17:56:25.054Z,11.00
2023-04-06T17:58:57.069Z,11.10
2023-04-06T18:01:25.381Z,11.30
2023-04-06T18:03:53.674Z,11.30
2023-04-06T18:06:25.566Z,11.30
2023-04-06T18:08:54.158Z,11.20
2023-04-06T18:11:22.495Z,11.40
2023-04-06T18:13:52.486Z,11.50
2023-04-06T18:16:21.604Z,11.40
2023-04-06T18:18:49.955Z,11.60
2023-04-06T18:21:18.351Z,11.80
2023-04-06T18:23:47.584Z,11.80
2023-04-06T18:26:17.641Z,11.80
2023-04-06T18:28:45.987Z,11.90
2023-04-06T18:31:15.901Z,11.90
2023-04-06T18:33:45.009Z,11.90
2023-04-06T18:36:14.443Z,11.90
2023-04-06T18:38:44.664Z,11.80
2023-04-06T18:41:12.796Z,11.80
2023-04-06T18:43:41.236Z,11.70
2023-04-06T18:46:12.653Z,11.70
2023-04-06T18:48:42.834Z,11.70
2023-04-06T18:51:11.070Z,11.70
2023-04-06T18:53:40.009Z,11.60
2023-04-06T18:56:15.546Z,11.60
2023-04-06T18:58:43.708Z,11.60
2023-04-06T19:01:11.937Z,11.60
2023-04-06T19:03:41.530Z,11.60
2023-04-06T19:06:09.747Z,11.50
2023-04-06T19:08:37.812Z,11.50
2023-04-06T19:11:09.167Z,11.50
2023-04-06T19:13:38.381Z,11.50
2023-04-06T19:16:09.979Z,11.40
2023-04-06T19:18:38.389Z,11.40
2023-04-06T19:21:15.963Z,11.40
2023-04-06T19:23:44.737Z,11.40
2023-04-06T19:26:13.098Z,11.40
2023-04-06T19:28:41.693Z,11.50
2023-04-06T19:31:11.919Z,11.50
2023-04-06T19:33:40.723Z,11.40
2023-04-06T19:36:10.413Z,11.30
2023-04-06T19:38:38.547Z,11.30
2023-04-06T19:41:06.697Z,11.30
2023-04-06T19:43:34.908Z,11.30
2023-04-06T19:46:03.408Z,11.20
2023-04-06T19:48:32.866Z,11.20
2023-04-06T19:51:01.310Z,11.20
2023-04-06T19:53:30.869Z,11.20
2023-04-06T19:55:59.040Z,11.20
2023-04-06T19:58:27.130Z,11.10
2023-04-06T20:00:55.270Z,11.10
2023-04-06T20:03:23.499Z,11.10
2023-04-06T20:05:51.702Z,11.20
2023-04-06T20:08:19.804Z,11.20
2023-04-06T20:10:49.278Z,11.10
2023-04-06T20:13:17.380Z,11.10
2023-04-06T20:15:45.628Z,11.10
2023-04-06T20:18:13.688Z,11.10
2023-04-06T20:20:41.809Z,11.10
2023-04-06T20:23:10.187Z,11.10
2023-04-06T20:25:38.323Z,11.00
2023-04-06T20:28:08.010Z,11.00
2023-04-06T20:30:36.514Z,11.00
2023-04-06T20:33:04.952Z,10.90
2023-04-06T20:35:34.891Z,10.90
2023-04-06T20:38:03.156Z,10.90
2023-04-06T20:40:31.268Z,10.90
2023-04-06T20:42:59.420Z,10.90
2023-04-06T20:45:29.824Z,10.90
2023-04-06T20:47:58.424Z,10.80
2023-04-06T20:50:26.707Z,10.80
2023-04-06T20:52:54.820Z,10.90
2023-04-06T20:55:22.875Z,10.90
2023-04-06T20:57:50.963Z,10.90
2023-04-06T21:00:19.814Z,10.80
2023-04-06T21:02:49.609Z,10.90
2023-04-06T21:05:18.054Z,10.80
2023-04-06T21:07:46.261Z,10.80
2023-04-06T21:10:14.461Z,10.80
2023-04-06T21:12:42.669Z,10.70
2023-04-06T21:15:11.508Z,10.70
2023-04-06T21:17:39.597Z,10.70
2023-04-06T21:20:10.989Z,10.70
2023-04-06T21:22:39.635Z,10.70
2023-04-06T21:25:08.626Z,10.70
2023-04-06T21:27:36.680Z,10.60
2023-04-06T21:30:05.375Z,10.60
2023-04-06T21:32:33.490Z,10.50
2023-04-06T21:35:02.617Z,10.50
2023-04-06T21:37:32.047Z,10.50
2023-04-06T21:40:02.057Z,10.50
2023-04-06T21:42:30.290Z,10.50
2023-04-06T21:44:59.146Z,10.40
2023-04-06T21:47:28.229Z,10.40
2023-04-06T21:49:56.406Z,10.40
2023-04-06T21:52:24.513Z,10.50
2023-04-06T21:54:53.943Z,10.40
2023-04-06T21:57:22.026Z,10.40
2023-04-06T21:59:50.144Z,10.40
2023-04-06T22:02:18.309Z,10.30
2023-04-06T22:04:48.145Z,10.30
2023-04-06T22:07:16.429Z,10.30
2023-04-06T22:09:50.852Z,10.30
2023-04-06T22:12:21.540Z,10.20
2023-04-06T22:14:49.657Z,10.30
2023-04-06T22:17:17.807Z,10.20
2023-04-06T22:19:45.970Z,10.30
2023-04-06T22:22:14.056Z,10.30
2023-04-06T22:24:42.232Z,10.30
2023-04-06T22:27:10.609Z,10.30
2023-04-06T22:29:40.043Z,10.30
2023-04-06T22:32:08.262Z,10.30
2023-04-06T22:34:36.439Z,10.30
2023-04-06T22:37:04.632Z,10.40
2023-04-06T22:39:32.691Z,10.40
2023-04-06T22:42:00.767Z,10.30
2023-04-06T22:44:29.005Z,10.30
2023-04-06T22:46:58.624Z,10.30
2023-04-06T22:49:26.740Z,10.30
2023-04-06T22:51:54.868Z,10.30
2023-04-06T22:54:22.933Z,10.30
2023-04-06T22:56:51.096Z,10.40
2023-04-06T22:59:19.136Z,10.40
2023-04-06T23:01:47.402Z,10.40
2023-04-06T23:04:17.082Z,10.40
2023-04-06T23:06:45.296Z,10.40
2023-04-06T23:09:13.377Z,10.30
2023-04-06T23:11:41.782Z,10.30
2023-04-06T23:14:09.865Z,10.30
2023-04-06T23:16:37.983Z,10.20
2023-04-06T23:19:06.298Z,10.30
2023-04-06T23:21:36.140Z,10.20
2023-04-06T23:24:04.349Z,10.20
2023-04-06T23:26:32.469Z,10.20
2023-04-06T23:29:00.569Z,10.20
2023-04-06T23:31:35.318Z,10.20
2023-04-06T23:34:08.576Z,10.20
2023-04-06T23:36:42.633Z,10.20
2023-04-06T23:39:14.375Z,10.20
2023-04-06T23:41:43.112Z,10.20
2023-04-06T23:44:11.250Z,10.20
2023-04-06T23:46:39.360Z,10.20
2023-04-06T23:49:07.616Z,10.30
2023-04-06T23:51:35.726Z,10.30
2023-04-06T23:54:05.787Z,10.30
2023-04-06T23:56:33.890Z,10.30
2023-04-06T23:59:02.018Z,10.30
